createdAt,value
2023-03-02T00:00:16.632Z,101233.36
2023-03-02T00:03:06.590Z,101231.34
2023-03-02T00:05:36.382Z,101228.46
2023-03-02T00:08:05.642Z,101226.70
2023-03-02T00:10:35.742Z,101223.04
2023-03-02T00:13:05.461Z,101225.98
2023-03-02T00:15:34.301Z,101222.44
2023-03-02T00:18:03.556Z,101225.41
2023-03-02T00:20:32.557Z,101228.65
2023-03-02T00:23:01.271Z,101227.33
2023-03-02T00:25:30.230Z,101229.83
2023-03-02T00:27:58.805Z,101233.39
2023-03-02T00:30:27.380Z,101229.89
2023-03-02T00:32:55.930Z,101229.54
2023-03-02T00:35:27.305Z,101227.05
2023-03-02T00:37:55.828Z,101225.48
2023-03-02T00:40:24.739Z,101226.86
2023-03-02T00:42:53.507Z,101227.39
2023-03-02T00:45:22.190Z,101223.60
2023-03-02T00:47:50.745Z,101222.40
2023-03-02T00:50:19.699Z,101220.34
2023-03-02T00:52:48.219Z,101221.77
2023-03-02T00:55:16.878Z,101218.23
2023-03-02T00:57:45.406Z,101217.93
2023-03-02T01:00:14.289Z,101218.27
2023-03-02T01:02:44.712Z,101217.94
2023-03-02T01:05:14.662Z,101216.06
2023-03-02T01:07:43.293Z,101214.53
2023-03-02T01:10:12.374Z,101212.13
2023-03-02T01:12:41.364Z,101209.77
2023-03-02T01:15:11.496Z,101209.97
2023-03-02T01:17:41.565Z,101210.20
2023-03-02T01:20:12.355Z,101202.33
2023-03-02T01:22:41.013Z,101199.90
2023-03-02T01:25:09.986Z,101202.50
2023-03-02T01:27:38.551Z,101199.67
2023-03-02T01:30:08.307Z,101196.61
2023-03-02T01:32:37.097Z,101195.39
2023-03-02T01:35:06.557Z,101194.79
2023-03-02T01:37:35.147Z,101191.88
2023-03-02T01:40:06.830Z,101192.41
2023-03-02T01:42:39.892Z,101190.16
2023-03-02T01:45:46.203Z,101186.39
2023-03-02T01:48:20.884Z,101181.88
2023-03-02T01:50:51.217Z,101177.99
2023-03-02T01:53:21.994Z,101173.98
2023-03-02T01:55:50.794Z,101173.27
2023-03-02T01:58:20.910Z,101170.66
2023-03-02T02:00:50.351Z,101168.45
2023-03-02T02:03:25.170Z,101167.33
2023-03-02T02:06:18.904Z,101158.30
2023-03-02T02:08:49.849Z,101158.33
2023-03-02T02:11:19.413Z,101153.49
2023-03-02T02:13:48.525Z,101149.13
2023-03-02T02:16:17.451Z,101145.36
2023-03-02T02:18:46.742Z,101149.19
2023-03-02T02:21:16.496Z,101149.30
2023-03-02T02:23:58.215Z,101150.14
2023-03-02T02:26:32.062Z,101146.17
2023-03-02T02:29:03.350Z,101144.91
2023-03-02T02:31:46.028Z,101143.85
2023-03-02T02:34:35.292Z,101141.86
2023-03-02T02:37:13.719Z,101144.98
2023-03-02T02:39:46.786Z,101136.70
2023-03-02T02:42:21.312Z,101135.91
2023-03-02T02:44:58.024Z,101131.51
2023-03-02T02:47:26.684Z,101135.63
2023-03-02T02:49:56.904Z,101133.25
2023-03-02T02:52:28.252Z,101136.77
2023-03-02T02:54:58.944Z,101136.67
2023-03-02T02:57:30.732Z,101136.65
2023-03-02T03:00:01.283Z,101137.56
2023-03-02T03:02:37.568Z,101143.48
2023-03-02T03:05:06.891Z,101147.08
2023-03-02T03:07:35.523Z,101148.84
2023-03-02T03:10:14.549Z,101152.30
2023-03-02T03:12:43.795Z,101155.67
2023-03-02T03:15:13.364Z,101156.70
2023-03-02T03:17:41.925Z,101159.44
2023-03-02T03:20:16.374Z,101160.10
2023-03-02T03:22:45.165Z,101159.30
2023-03-02T03:25:15.714Z,101156.54
2023-03-02T03:27:44.980Z,101159.20
2023-03-02T03:30:15.176Z,101159.45
2023-03-02T03:32:44.331Z,101163.20
2023-03-02T03:35:13.715Z,101156.24
2023-03-02T03:37:43.795Z,101160.75
2023-03-02T03:40:12.508Z,101164.55
2023-03-02T03:42:41.444Z,101166.48
2023-03-02T03:45:10.610Z,101163.39
2023-03-02T03:47:40.150Z,101163.80
2023-03-02T03:50:09.404Z,101165.08
2023-03-02T03:52:37.952Z,101161.88
2023-03-02T03:55:07.219Z,101164.45
2023-03-02T03:57:36.438Z,101161.41
2023-03-02T04:00:08.459Z,101161.09
2023-03-02T04:02:38.452Z,101152.41
2023-03-02T04:05:08.586Z,101141.77
2023-03-02T04:07:38.549Z,101144.85
2023-03-02T04:10:08.972Z,101147.64
2023-03-02T04:12:40.707Z,101149.90
2023-03-02T04:15:15.761Z,101148.54
2023-03-02T04:17:45.387Z,101150.17
2023-03-02T04:20:17.651Z,101147.38
2023-03-02T04:22:48.652Z,101149.23
2023-03-02T04:25:20.781Z,101151.09
2023-03-02T04:27:51.288Z,101148.19
2023-03-02T04:30:23.912Z,101149.21
2023-03-02T04:32:52.975Z,101150.44
2023-03-02T04:35:21.692Z,101153.81
2023-03-02T04:37:50.496Z,101155.43
2023-03-02T04:40:19.066Z,101157.23
2023-03-02T04:42:49.003Z,101160.95
2023-03-02T04:45:18.698Z,101161.43
2023-03-02T04:47:47.312Z,101154.68
2023-03-02T04:50:16.415Z,101152.86
2023-03-02T04:52:45.083Z,101153.05
2023-03-02T04:55:23.039Z,101155.75
2023-03-02T04:57:51.505Z,101161.02
2023-03-02T05:00:21.364Z,101157.61
2023-03-02T05:02:50.622Z,101155.58
2023-03-02T05:05:23.895Z,101157.52
2023-03-02T05:07:53.271Z,101155.38
2023-03-02T05:10:23.016Z,101156.02
2023-03-02T05:12:55.026Z,101158.73
2023-03-02T05:15:36.614Z,101161.14
2023-03-02T05:18:08.607Z,101159.77
2023-03-02T05:20:37.814Z,101164.34
2023-03-02T05:23:09.448Z,101163.64
2023-03-02T05:25:39.229Z,101166.48
2023-03-02T05:28:08.330Z,101165.64
2023-03-02T05:30:38.131Z,101169.79
2023-03-02T05:33:07.332Z,101169.52
2023-03-02T05:35:36.686Z,101169.45
2023-03-02T05:38:06.473Z,101164.38
2023-03-02T05:40:35.535Z,101165.77
2023-03-02T05:43:05.270Z,101167.39
2023-03-02T05:45:38.966Z,101168.19
2023-03-02T05:48:09.430Z,101170.21
2023-03-02T05:50:38.486Z,101170.78
2023-03-02T05:53:07.273Z,101174.42
2023-03-02T05:55:38.877Z,101175.91
2023-03-02T05:58:12.188Z,101175.85
2023-03-02T06:00:41.687Z,101179.45
2023-03-02T06:03:10.389Z,101182.70
2023-03-02T06:05:39.343Z,101182.17
2023-03-02T06:08:08.243Z,101186.40
2023-03-02T06:10:36.886Z,101189.39
2023-03-02T06:13:05.483Z,101187.45
2023-03-02T06:15:35.096Z,101185.70
2023-03-02T06:18:04.237Z,101191.31
2023-03-02T06:20:33.439Z,101195.11
2023-03-02T06:23:02.137Z,101197.34
2023-03-02T06:25:30.975Z,101201.95
2023-03-02T06:27:59.454Z,101207.52
2023-03-02T06:30:28.658Z,101211.27
2023-03-02T06:32:57.163Z,101209.70
2023-03-02T06:35:25.799Z,101210.66
2023-03-02T06:37:54.273Z,101212.27
2023-03-02T06:40:22.790Z,101212.12
2023-03-02T06:42:51.234Z,101211.81
2023-03-02T06:45:19.908Z,101210.98
2023-03-02T06:47:48.518Z,101215.01
2023-03-02T06:50:17.179Z,101212.66
2023-03-02T06:52:45.819Z,101222.89
2023-03-02T06:55:14.347Z,101224.29
2023-03-02T06:57:42.996Z,101222.46
2023-03-02T07:00:25.862Z,101219.93
2023-03-02T07:02:56.659Z,101222.90
2023-03-02T07:05:25.303Z,101220.20
2023-03-02T07:07:54.443Z,101219.40
2023-03-02T07:10:23.118Z,101219.27
2023-03-02T07:12:53.071Z,101218.98
2023-03-02T07:15:22.056Z,101210.60
2023-03-02T07:17:50.658Z,101207.73
2023-03-02T07:20:19.601Z,101210.19
2023-03-02T07:22:48.286Z,101211.75
2023-03-02T07:25:17.033Z,101208.34
2023-03-02T07:27:45.602Z,101206.10
2023-03-02T07:30:15.509Z,101204.37
2023-03-02T07:32:44.111Z,101205.08
2023-03-02T07:35:12.698Z,101208.36
2023-03-02T07:37:41.867Z,101208.21
2023-03-02T07:40:11.903Z,101208.95
2023-03-02T07:42:40.981Z,101212.60
2023-03-02T07:45:11.943Z,101214.02
2023-03-02T07:47:40.694Z,101215.08
2023-03-02T07:50:10.232Z,101218.84
2023-03-02T07:52:38.822Z,101216.92
2023-03-02T07:55:07.672Z,101218.92
2023-03-02T07:57:36.780Z,101219.77
2023-03-02T08:00:06.179Z,101215.14
2023-03-02T08:02:35.295Z,101213.61
2023-03-02T08:05:04.129Z,101213.95
2023-03-02T08:07:33.184Z,101213.28
2023-03-02T08:10:01.784Z,101214.67
2023-03-02T08:12:30.431Z,101211.45
2023-03-02T08:14:59.105Z,101209.05
2023-03-02T08:17:27.844Z,101211.14
2023-03-02T08:19:56.519Z,101209.73
2023-03-02T08:22:25.677Z,101210.94
2023-03-02T08:24:54.158Z,101208.74
2023-03-02T08:27:23.084Z,101207.42
2023-03-02T08:29:51.638Z,101201.11
2023-03-02T08:32:20.862Z,101201.80
2023-03-02T08:34:52.070Z,101200.98
2023-03-02T08:37:21.206Z,101199.96
2023-03-02T08:39:49.994Z,101194.86
2023-03-02T08:42:18.727Z,101189.89
2023-03-02T08:44:47.438Z,101189.08
2023-03-02T08:47:16.028Z,101191.81
2023-03-02T08:49:45.565Z,101189.59
2023-03-02T08:52:15.698Z,101183.06
2023-03-02T08:54:44.435Z,101179.61
2023-03-02T08:57:13.672Z,101180.64
2023-03-02T08:59:42.640Z,101178.25
2023-03-02T09:02:12.759Z,101173.23
2023-03-02T09:04:42.258Z,101170.41
2023-03-02T09:07:11.392Z,101168.82
2023-03-02T09:09:40.052Z,101168.77
2023-03-02T09:12:08.656Z,101166.67
2023-03-02T09:14:37.799Z,101167.30
2023-03-02T09:17:06.880Z,101169.67
2023-03-02T09:19:44.286Z,101177.10
2023-03-02T09:22:13.387Z,101175.41
2023-03-02T09:24:41.942Z,101172.82
2023-03-02T09:27:10.764Z,101174.52
2023-03-02T09:29:39.444Z,101170.23
2023-03-02T09:32:08.140Z,101170.75
2023-03-02T09:34:36.964Z,101167.52
2023-03-02T09:37:05.908Z,101167.04
2023-03-02T09:39:35.026Z,101171.90
2023-03-02T09:42:48.880Z,101169.57
2023-03-02T09:45:46.270Z,101172.67
2023-03-02T09:48:42.797Z,101173.27
2023-03-02T09:51:36.850Z,101173.05
2023-03-02T09:54:13.027Z,101173.15
2023-03-02T09:56:49.767Z,101173.02
2023-03-02T09:59:22.135Z,101173.08
2023-03-02T10:02:04.413Z,101175.67
2023-03-02T10:04:45.475Z,101176.02
2023-03-02T10:07:16.315Z,101176.37
2023-03-02T10:09:45.298Z,101174.48
2023-03-02T10:12:41.513Z,101174.80
2023-03-02T10:15:41.168Z,101174.79
2023-03-02T10:18:21.614Z,101174.10
2023-03-02T10:21:01.172Z,101175.11
2023-03-02T10:23:44.705Z,101170.30
2023-03-02T10:26:32.141Z,101168.27
2023-03-02T10:29:19.544Z,101164.52
2023-03-02T10:31:55.816Z,101159.21
2023-03-02T10:34:29.768Z,101157.15
2023-03-02T10:36:58.932Z,101159.21
2023-03-02T10:39:27.568Z,101155.60
2023-03-02T10:42:04.001Z,101157.66
2023-03-02T10:44:39.293Z,101159.05
2023-03-02T10:47:08.884Z,101159.02
2023-03-02T10:49:42.886Z,101159.70
2023-03-02T10:52:32.750Z,101155.89
2023-03-02T10:55:14.096Z,101155.86
2023-03-02T10:57:44.822Z,101155.71
2023-03-02T11:00:25.655Z,101156.27
2023-03-02T11:03:18.665Z,101151.46
2023-03-02T11:05:48.126Z,101147.85
2023-03-02T11:08:25.845Z,101145.11
2023-03-02T11:11:03.646Z,101147.14
2023-03-02T11:13:37.540Z,101142.84
2023-03-02T11:16:28.717Z,101142.89
2023-03-02T11:19:15.499Z,101145.83
2023-03-02T11:22:03.373Z,101138.09
2023-03-02T11:24:55.536Z,101138.95
2023-03-02T11:27:33.884Z,101134.66
2023-03-02T11:30:22.948Z,101132.24
2023-03-02T11:33:01.014Z,101131.55
2023-03-02T11:35:47.986Z,101131.56
2023-03-02T11:38:28.875Z,101134.84
2023-03-02T11:41:24.873Z,101133.46
2023-03-02T11:43:55.402Z,101130.20
2023-03-02T11:46:34.090Z,101126.09
2023-03-02T11:49:07.606Z,101123.86
2023-03-02T11:51:47.169Z,101122.98
2023-03-02T11:55:00.568Z,101116.30
2023-03-02T11:57:37.105Z,101112.52
2023-03-02T12:00:22.606Z,101116.64
2023-03-02T12:03:15.998Z,101112.34
2023-03-02T12:05:51.903Z,101104.27
2023-03-02T12:08:20.397Z,101101.86
2023-03-02T12:11:09.160Z,101101.16
2023-03-02T12:13:40.400Z,101101.17
2023-03-02T12:16:41.336Z,101098.27
2023-03-02T12:19:39.196Z,101096.55
2023-03-02T12:22:12.618Z,101096.20
2023-03-02T12:24:45.543Z,101093.64
2023-03-02T12:27:39.367Z,101092.45
2023-03-02T12:30:18.723Z,101084.91
2023-03-02T12:33:04.357Z,101088.67
2023-03-02T12:35:34.916Z,101081.63
2023-03-02T12:38:08.444Z,101081.08
2023-03-02T12:40:39.960Z,101078.67
2023-03-02T12:43:21.847Z,101074.70
2023-03-02T12:46:26.354Z,101070.20
2023-03-02T12:49:17.142Z,101069.46
2023-03-02T12:51:56.715Z,101074.66
2023-03-02T12:54:31.396Z,101074.36
2023-03-02T12:57:19.524Z,101075.27
2023-03-02T12:59:58.599Z,101070.48
2023-03-02T13:02:30.236Z,101071.87
2023-03-02T13:05:30.206Z,101068.09
2023-03-02T13:08:05.047Z,101063.46
2023-03-02T13:10:37.671Z,101060.70
2023-03-02T13:13:20.870Z,101057.60
2023-03-02T13:15:56.189Z,101054.53
2023-03-02T13:18:32.310Z,101053.34
2023-03-02T13:21:05.362Z,101050.25
2023-03-02T13:23:34.889Z,101043.73
2023-03-02T13:26:05.827Z,101045.62
2023-03-02T13:28:38.221Z,101047.16
2023-03-02T13:31:25.250Z,101047.50
2023-03-02T13:33:56.140Z,101044.58
2023-03-02T13:36:31.603Z,101045.08
2023-03-02T13:39:01.260Z,101038.74
2023-03-02T13:41:32.971Z,101039.27
2023-03-02T13:44:23.458Z,101032.58
2023-03-02T13:46:52.774Z,101026.73
2023-03-02T13:49:33.162Z,101024.49
2023-03-02T13:52:03.636Z,101018.15
2023-03-02T13:54:35.767Z,101014.54
2023-03-02T13:57:06.413Z,101011.80
2023-03-02T13:59:36.839Z,101006.33
2023-03-02T14:02:25.896Z,101007.70
2023-03-02T14:04:54.687Z,101009.58
2023-03-02T14:07:26.169Z,101006.31
2023-03-02T14:09:57.240Z,101000.13
2023-03-02T14:12:30.956Z,100995.99
2023-03-02T14:15:03.093Z,100986.19
2023-03-02T14:17:31.820Z,100981.16
2023-03-02T14:20:00.887Z,100976.66
2023-03-02T14:22:30.592Z,100971.81
2023-03-02T14:24:59.635Z,100964.92
2023-03-02T14:27:31.224Z,100960.13
2023-03-02T14:30:01.033Z,100955.35
2023-03-02T14:32:29.861Z,100958.23
2023-03-02T14:34:58.380Z,100953.95
2023-03-02T14:37:30.474Z,100954.46
2023-03-02T14:39:59.615Z,100944.98
2023-03-02T14:42:28.299Z,100941.54
2023-03-02T14:44:58.514Z,100938.14
2023-03-02T14:47:28.555Z,100937.00
2023-03-02T14:49:57.177Z,100931.35
2023-03-02T14:52:32.305Z,100928.63
2023-03-02T14:55:07.176Z,100929.98
2023-03-02T14:57:38.954Z,100927.27
2023-03-02T15:00:09.405Z,100925.73
2023-03-02T15:02:38.162Z,100923.71
2023-03-02T15:05:07.954Z,100923.90
2023-03-02T15:07:37.463Z,100919.61
2023-03-02T15:10:07.617Z,100915.31
2023-03-02T15:12:36.274Z,100918.39
2023-03-02T15:15:05.324Z,100922.00
2023-03-02T15:17:33.820Z,100915.98
2023-03-02T15:20:02.541Z,100914.13
2023-03-02T15:22:31.067Z,100912.23
2023-03-02T15:24:59.643Z,100913.08
2023-03-02T15:27:28.244Z,100912.89
2023-03-02T15:29:57.315Z,100915.80
2023-03-02T15:32:26.879Z,100915.79
2023-03-02T15:34:55.696Z,100920.96
2023-03-02T15:37:24.873Z,100922.52
2023-03-02T15:39:55.592Z,100923.71
2023-03-02T15:42:24.326Z,100921.31
2023-03-02T15:44:53.469Z,100918.22
2023-03-02T15:47:22.411Z,100918.71
2023-03-02T15:49:51.077Z,100919.60
2023-03-02T15:52:21.338Z,100921.15
2023-03-02T15:54:49.966Z,100917.02
2023-03-02T15:57:19.361Z,100918.05
2023-03-02T15:59:47.833Z,100919.74
2023-03-02T16:02:16.590Z,100918.02
2023-03-02T16:04:45.432Z,100918.19
2023-03-02T16:07:14.049Z,100916.27
2023-03-02T16:09:45.808Z,100918.50
2023-03-02T16:12:15.187Z,100912.34
2023-03-02T16:14:44.135Z,100916.84
2023-03-02T16:17:12.903Z,100919.59
2023-03-02T16:19:41.713Z,100918.38
2023-03-02T16:22:10.976Z,100914.41
2023-03-02T16:24:41.896Z,100909.25
2023-03-02T16:27:10.761Z,100908.06
2023-03-02T16:29:39.933Z,100910.46
2023-03-02T16:32:10.651Z,100907.08
2023-03-02T16:34:40.016Z,100909.63
2023-03-02T16:37:09.744Z,100907.57
2023-03-02T16:39:38.761Z,100901.41
2023-03-02T16:42:07.821Z,100899.36
2023-03-02T16:44:38.289Z,100896.11
2023-03-02T16:47:07.462Z,100895.76
2023-03-02T16:49:36.031Z,100894.19
2023-03-02T16:52:05.110Z,100894.19
2023-03-02T16:54:35.303Z,100891.97
2023-03-02T16:57:04.721Z,100897.45
2023-03-02T16:59:33.587Z,100899.87
2023-03-02T17:02:02.453Z,100900.74
2023-03-02T17:04:34.028Z,100898.68
2023-03-02T17:07:05.597Z,100901.25
2023-03-02T17:09:36.776Z,100901.25
2023-03-02T17:12:05.942Z,100901.94
2023-03-02T17:14:35.123Z,100903.46
2023-03-02T17:17:04.535Z,100905.16
2023-03-02T17:19:33.730Z,100909.27
2023-03-02T17:22:04.172Z,100910.29
2023-03-02T17:24:33.630Z,100907.71
2023-03-02T17:27:04.247Z,100907.55
2023-03-02T17:29:36.084Z,100911.96
2023-03-02T17:32:06.742Z,100913.26
2023-03-02T17:34:37.141Z,100913.86
2023-03-02T17:37:07.115Z,100916.57
2023-03-02T17:39:41.072Z,100917.62
2023-03-02T17:42:10.442Z,100923.21
2023-03-02T17:44:41.101Z,100920.13
2023-03-02T17:47:10.095Z,100920.31
2023-03-02T17:49:41.336Z,100922.54
2023-03-02T17:52:10.572Z,100920.70
2023-03-02T17:54:40.418Z,100918.15
2023-03-02T17:57:11.409Z,100912.39
2023-03-02T17:59:40.976Z,100913.71
2023-03-02T18:02:11.293Z,100919.65
2023-03-02T18:04:41.214Z,100914.55
2023-03-02T18:07:10.124Z,100909.54
2023-03-02T18:09:40.571Z,100908.05
2023-03-02T18:12:10.897Z,100905.55
2023-03-02T18:14:41.276Z,100905.58
2023-03-02T18:17:13.056Z,100905.09
2023-03-02T18:19:42.796Z,100905.95
2023-03-02T18:22:12.317Z,100903.72
2023-03-02T18:24:46.576Z,100901.85
2023-03-02T18:27:15.594Z,100897.25
2023-03-02T18:29:46.381Z,100896.40
2023-03-02T18:32:16.376Z,100896.92
2023-03-02T18:34:45.869Z,100891.42
2023-03-02T18:37:17.831Z,100891.77
2023-03-02T18:39:48.807Z,100891.95
2023-03-02T18:42:18.967Z,100888.49
2023-03-02T18:44:50.088Z,100891.73
2023-03-02T18:47:21.212Z,100887.64
2023-03-02T18:49:50.705Z,100884.77
2023-03-02T18:52:21.574Z,100883.06
2023-03-02T18:54:51.355Z,100885.47
2023-03-02T18:57:23.331Z,100883.92
2023-03-02T18:59:54.892Z,100885.10
2023-03-02T19:02:25.636Z,100890.38
2023-03-02T19:04:56.684Z,100888.15
2023-03-02T19:07:26.879Z,100888.52
2023-03-02T19:09:57.626Z,100889.90
2023-03-02T19:12:28.496Z,100892.98
2023-03-02T19:15:00.018Z,100894.01
2023-03-02T19:17:32.690Z,100889.39
2023-03-02T19:20:04.516Z,100891.27
2023-03-02T19:22:36.129Z,100891.96
2023-03-02T19:25:07.820Z,100888.67
2023-03-02T19:27:38.211Z,100887.30
2023-03-02T19:30:12.854Z,100886.80
2023-03-02T19:32:43.112Z,100886.64
2023-03-02T19:35:20.892Z,100883.57
2023-03-02T19:37:54.022Z,100880.83
2023-03-02T19:40:31.853Z,100877.55
2023-03-02T19:43:03.498Z,100878.66
2023-03-02T19:45:36.038Z,100882.04
2023-03-02T19:48:08.696Z,100891.35
2023-03-02T19:50:38.978Z,100895.95
2023-03-02T19:53:10.973Z,100901.21
2023-03-02T19:55:43.595Z,100902.45
2023-03-02T19:58:18.363Z,100901.39
2023-03-02T20:00:48.850Z,100902.73
2023-03-02T20:03:21.444Z,100901.87
2023-03-02T20:05:51.857Z,100897.23
2023-03-02T20:08:23.447Z,100897.02
2023-03-02T20:10:54.056Z,100896.16
2023-03-02T20:13:27.333Z,100892.80
2023-03-02T20:15:57.929Z,100891.64
2023-03-02T20:18:30.802Z,100890.48
2023-03-02T20:21:02.705Z,100884.36
2023-03-02T20:23:33.353Z,100883.74
2023-03-02T20:26:06.664Z,100884.48
2023-03-02T20:28:38.147Z,100887.41
2023-03-02T20:31:14.100Z,100889.13
2023-03-02T20:33:50.972Z,100889.29
2023-03-02T20:36:32.645Z,100878.11
2023-03-02T20:39:13.683Z,100877.91
2023-03-02T20:41:44.682Z,100880.85
2023-03-02T20:44:16.456Z,100884.79
2023-03-02T20:46:52.484Z,100890.29
2023-03-02T20:49:26.516Z,100891.15
2023-03-02T20:51:58.399Z,100897.10
2023-03-02T20:54:35.981Z,100900.70
2023-03-02T20:57:10.242Z,100904.65
2023-03-02T20:59:40.262Z,100906.88
2023-03-02T21:02:11.524Z,100903.14
2023-03-02T21:04:42.206Z,100896.96
2023-03-02T21:07:13.277Z,100897.95
2023-03-02T21:09:45.609Z,100895.54
2023-03-02T21:12:16.222Z,100896.07
2023-03-02T21:14:46.000Z,100897.27
2023-03-02T21:17:15.261Z,100893.31
2023-03-02T21:19:44.752Z,100888.54
2023-03-02T21:22:14.045Z,100884.80
2023-03-02T21:24:43.550Z,100882.77
2023-03-02T21:27:12.953Z,100880.69
2023-03-02T21:29:42.536Z,100878.29
2023-03-02T21:32:13.043Z,100871.96
2023-03-02T21:34:42.248Z,100870.79
2023-03-02T21:37:11.434Z,100872.85
2023-03-02T21:39:40.593Z,100875.77
2023-03-02T21:42:09.982Z,100867.06
2023-03-02T21:44:40.275Z,100865.02
2023-03-02T21:47:09.653Z,100861.23
2023-03-02T21:49:39.076Z,100851.30
2023-03-02T21:52:08.443Z,100853.02
2023-03-02T21:54:37.294Z,100856.76
2023-03-02T21:57:08.596Z,100852.13
2023-03-02T21:59:37.649Z,100850.41
2023-03-02T22:02:06.501Z,100845.11
2023-03-02T22:04:35.888Z,100850.76
2023-03-02T22:07:05.288Z,100847.52
2023-03-02T22:09:34.351Z,100851.94
2023-03-02T22:12:12.293Z,100857.23
2023-03-02T22:14:41.525Z,100851.39
2023-03-02T22:17:22.240Z,100848.45
2023-03-02T22:19:52.670Z,100845.86
2023-03-02T22:22:27.363Z,100842.25
2023-03-02T22:24:56.674Z,100837.29
2023-03-02T22:27:30.234Z,100834.58
2023-03-02T22:30:00.119Z,100839.38
2023-03-02T22:32:37.470Z,100847.60
2023-03-02T22:35:27.302Z,100851.71
2023-03-02T22:38:02.521Z,100861.46
2023-03-02T22:40:34.122Z,100858.55
2023-03-02T22:43:29.717Z,100852.02
2023-03-02T22:46:22.030Z,100850.33
2023-03-02T22:48:53.109Z,100840.41
2023-03-02T22:51:24.659Z,100836.27
2023-03-02T22:54:00.063Z,100838.12
2023-03-02T22:56:35.662Z,100837.44
2023-03-02T22:59:22.269Z,100833.67
2023-03-02T23:01:53.397Z,100824.78
2023-03-02T23:04:25.198Z,100818.59
2023-03-02T23:06:56.913Z,100823.67
2023-03-02T23:09:28.788Z,100815.26
2023-03-02T23:12:01.626Z,100821.02
2023-03-02T23:14:55.731Z,100827.64
2023-03-02T23:17:39.325Z,100826.75
2023-03-02T23:20:13.095Z,100822.30
2023-03-02T23:22:42.976Z,100816.64
2023-03-02T23:25:11.686Z,100817.83
2023-03-02T23:27:40.452Z,100816.97
2023-03-02T23:30:10.112Z,100815.27
2023-03-02T23:32:39.399Z,100813.04
2023-03-02T23:35:08.904Z,100814.94
2023-03-02T23:37:37.999Z,100810.98
2023-03-02T23:40:08.491Z,100806.20
2023-03-02T23:42:38.420Z,100799.54
2023-03-02T23:45:08.649Z,100796.45
2023-03-02T23:47:37.647Z,100798.17
2023-03-02T23:50:06.893Z,100790.86
2023-03-02T23:52:35.442Z,100783.51
2023-03-02T23:55:05.424Z,100785.90
2023-03-02T23:57:34.326Z,100790.67
